Аэропорт: Нижневартовск. Нижневартовск

ICAO: USNN

METAR:
2019-11-21 01:30:00
USNN 210130Z 27005MPS 3100 -SHSN DRSN BKN029CB M13/M15 Q1018 R21/39//33 NOSIG RMK QFE758
METAR:
2019-11-20 23:00:00
TAF USNN 202300Z 2100/2124 27006G12MPS 3100 -SN BKN011 OVC050 TEMPO 2100/2104 1000 SHSN BLSN BKN004 BKN017CB BECMG 2105/2107 4000 -SN BKN015 OVC040 BECMG 2112/2113 30003G08MPS